Time;durP1;ratioP1;P1;durP2;ratioP2;P2;SDS_P1;SDS_P2;PMS_P1;PMS_P2;Temp;Humidity;BMP_temperature;BMP_pressure;BME280_temperature;BME280_humidity;BME280_pressure;Samples;Min_cycle;Max_cycle;Signal;HPM_P1;HPM_P2
2022/09/24 13:17:43;;;;;;;;;;;26.40;39.40;;;;;;387719;286;279281;-56
2022/09/24 13:19:45;;;;;;;;;;;26.30;40.10;;;;;;381699;291;279849;-60
2022/09/24 13:21:47;;;;;;;;;;;26.20;40.10;;;;;;381018;292;285487;-58
2022/09/24 13:23:49;;;;;;;;;;;26.20;40.20;;;;;;381762;292;279678;-59
2022/09/24 13:25:50;;;;;;;;;;;26.20;40.20;;;;;;382503;292;279364;-59
2022/09/24 13:27:52;;;;;;;;;;;26.20;40.10;;;;;;381896;292;280985;-60
2022/09/24 13:29:54;;;;;;;;;;;26.20;40.20;;;;;;381931;292;279967;-59
2022/09/24 13:31:56;;;;;;;;;;;26.20;40.20;;;;;;381379;292;279499;-59
2022/09/24 13:33:58;;;;;;;;;;;26.20;40.20;;;;;;382247;292;279672;-60
2022/09/24 13:36:02;;;;;;;;;;;26.20;40.20;;;;;;381570;292;280418;-60
2022/09/24 13:38:03;;;;;;;;;;;26.20;40.20;;;;;;380046;292;288698;-60
2022/09/24 13:40:04;;;;;;;;;;;26.20;40.20;;;;;;382075;292;278834;-59
2022/09/24 13:42:06;;;;;;;;;;;26.20;40.20;;;;;;381564;292;279401;-60
2022/09/24 13:44:08;;;;;;;;;;;26.20;40.20;;;;;;381570;292;279545;-61
2022/09/24 13:46:09;;;;;;;;;;;26.30;40.20;;;;;;383355;291;278897;-60
2022/09/24 13:48:11;;;;;;;;;;;26.20;40.20;;;;;;381086;292;280246;-59
2022/09/24 13:50:13;;;;;;;;;;;26.30;40.20;;;;;;381544;292;279569;-59
2022/09/24 13:52:15;;;;;;;;;;;26.30;40.10;;;;;;382095;292;279167;-58
2022/09/24 13:54:16;;;;;;;;;;;26.30;40.90;;;;;;381687;292;280367;-60
2022/09/24 13:56:18;;;;;;;;;;;26.30;40.30;;;;;;381784;292;281073;-60
2022/09/24 13:58:20;;;;;;;;;;;26.30;40.30;;;;;;382074;292;278954;-59
2022/09/24 14:00:21;;;;;;;;;;;26.30;42.70;;;;;;379882;293;279686;-59
2022/09/24 14:02:24;;;;;;;;;;;26.20;42.90;;;;;;380335;293;279403;-60
2022/09/24 14:04:25;;;;;;;;;;;26.20;40.40;;;;;;380651;292;285380;-59
2022/09/24 14:06:27;;;;;;;;;;;26.30;40.40;;;;;;382335;292;279988;-59
2022/09/24 14:08:31;;;;;;;;;;;26.30;40.30;;;;;;380690;293;279452;-60
2022/09/24 14:10:34;;;;;;;;;;;26.30;40.20;;;;;;380857;292;286006;-60
2022/09/24 14:12:36;;;;;;;;;;;26.30;40.30;;;;;;381374;292;287127;-59
2022/09/24 14:14:38;;;;;;;;;;;26.30;40.40;;;;;;382474;292;280020;-60
2022/09/24 14:16:39;;;;;;;;;;;26.30;40.60;;;;;;379408;293;279488;-58
2022/09/24 14:18:41;;;;;;;;;;;26.30;40.40;;;;;;380617;291;280245;-60
2022/09/24 14:20:43;;;;;;;;;;;26.30;40.30;;;;;;382272;291;279498;-59
2022/09/24 14:22:44;;;;;;;;;;;26.40;40.20;;;;;;380171;292;280337;-60
2022/09/24 14:24:46;;;;;;;;;;;26.30;40.20;;;;;;385083;289;279426;-60
2022/09/24 14:26:48;;;;;;;;;;;26.40;40.10;;;;;;381601;292;278854;-59
2022/09/24 14:28:49;;;;;;;;;;;26.40;46.20;;;;;;381587;292;279827;-59
2022/09/24 14:32:23;;;;;;;;;;;26.30;40.60;;;;;;389048;287;279493;-60
2022/09/24 14:34:25;;;;;;;;;;;26.30;40.40;;;;;;387771;288;279486;-60
2022/09/24 14:36:28;;;;;;;;;;;26.30;40.40;;;;;;383406;291;289345;-60
2022/09/24 14:38:30;;;;;;;;;;;26.30;40.40;;;;;;382476;291;285966;-62
2022/09/24 14:40:31;;;;;;;;;;;26.30;40.40;;;;;;382472;291;285399;-59
2022/09/24 14:42:33;;;;;;;;;;;26.40;40.30;;;;;;382345;292;279238;-60
2022/09/24 14:44:36;;;;;;;;;;;26.30;40.40;;;;;;382343;292;279878;-61
2022/09/24 14:46:38;;;;;;;;;;;26.30;40.40;;;;;;381773;292;285310;-60
2022/09/24 14:48:40;;;;;;;;;;;26.40;40.30;;;;;;382277;292;279510;-60
2022/09/24 14:50:41;;;;;;;;;;;26.40;40.30;;;;;;382203;291;279451;-61
2022/09/24 14:52:43;;;;;;;;;;;26.40;41.70;;;;;;382267;292;279482;-59
2022/09/24 14:54:45;;;;;;;;;;;26.40;40.40;;;;;;382356;292;280099;-59
2022/09/24 14:56:46;;;;;;;;;;;26.40;42.70;;;;;;382293;292;279566;-60
2022/09/24 14:58:48;;;;;;;;;;;26.40;40.50;;;;;;382097;292;279539;-61
2022/09/24 15:00:50;;;;;;;;;;;26.50;40.30;;;;;;381685;292;279640;-59
2022/09/24 15:02:51;;;;;;;;;;;26.50;41.30;;;;;;381411;292;279546;-60
2022/09/24 15:04:53;;;;;;;;;;;26.50;40.20;;;;;;380960;292;279415;-61
2022/09/24 15:06:55;;;;;;;;;;;26.50;41.60;;;;;;381782;292;279599;-59
2022/09/24 15:08:57;;;;;;;;;;;26.50;40.40;;;;;;380839;292;287193;-62
2022/09/24 15:10:59;;;;;;;;;;;26.50;40.20;;;;;;381493;292;278469;-60
2022/09/24 15:13:00;;;;;;;;;;;26.50;40.10;;;;;;380955;292;280551;-59
2022/09/24 15:15:02;;;;;;;;;;;26.60;40.00;;;;;;380953;292;279415;-61
2022/09/24 15:17:04;;;;;;;;;;;26.60;39.90;;;;;;382355;292;278905;-60
2022/09/24 15:19:05;;;;;;;;;;;26.60;39.90;;;;;;381559;292;279513;-60
2022/09/24 15:21:09;;;;;;;;;;;26.60;40.30;;;;;;381187;292;279588;-59
2022/09/24 15:23:10;;;;;;;;;;;26.60;39.80;;;;;;381555;292;286148;-60
2022/09/24 15:25:13;;;;;;;;;;;26.60;39.80;;;;;;382366;292;279479;-60
2022/09/24 15:27:15;;;;;;;;;;;26.60;39.80;;;;;;381583;292;285492;-61
2022/09/24 15:29:16;;;;;;;;;;;26.60;39.80;;;;;;381335;292;281457;-60
2022/09/24 15:31:18;;;;;;;;;;;26.70;39.80;;;;;;381881;292;278427;-61
2022/09/24 15:33:20;;;;;;;;;;;26.70;39.70;;;;;;382588;291;280176;-60
2022/09/24 15:35:21;;;;;;;;;;;26.70;39.80;;;;;;382409;291;279506;-60
2022/09/24 15:37:24;;;;;;;;;;;26.70;39.90;;;;;;382688;291;279529;-60
2022/09/24 15:39:26;;;;;;;;;;;26.60;39.70;;;;;;382176;291;285634;-59
2022/09/24 15:41:27;;;;;;;;;;;26.70;39.70;;;;;;381623;291;285547;-60
2022/09/24 15:43:29;;;;;;;;;;;26.70;39.60;;;;;;381765;291;279593;-61
2022/09/24 15:45:31;;;;;;;;;;;26.70;39.70;;;;;;382224;291;279517;-55
2022/09/24 15:47:32;;;;;;;;;;;26.70;39.70;;;;;;381946;291;280358;-61
2022/09/24 15:49:34;;;;;;;;;;;26.70;39.70;;;;;;382059;291;279968;-59
2022/09/24 15:51:36;;;;;;;;;;;26.70;39.60;;;;;;381009;293;279434;-60
2022/09/24 15:53:38;;;;;;;;;;;26.80;39.80;;;;;;382889;291;279409;-61
2022/09/24 15:55:39;;;;;;;;;;;26.80;39.50;;;;;;382687;291;279511;-58
2022/09/24 15:57:41;;;;;;;;;;;26.80;39.50;;;;;;382418;291;279534;-60
2022/09/24 15:59:43;;;;;;;;;;;26.80;39.50;;;;;;382156;291;279617;-59
2022/09/24 16:01:44;;;;;;;;;;;26.80;39.40;;;;;;382933;291;279535;-60
2022/09/24 16:03:46;;;;;;;;;;;26.80;39.40;;;;;;382555;291;279460;-58
2022/09/24 16:05:48;;;;;;;;;;;26.80;45.40;;;;;;382406;291;279527;-61
2022/09/24 16:07:50;;;;;;;;;;;26.80;39.70;;;;;;381912;291;279505;-63
2022/09/24 16:09:51;;;;;;;;;;;26.80;39.50;;;;;;383869;291;279549;-64
2022/09/24 16:11:56;;;;;;;;;;;26.80;39.50;;;;;;382084;293;278237;-63
2022/09/24 16:13:57;;;;;;;;;;;26.80;39.40;;;;;;382382;293;285515;-60
2022/09/24 16:16:07;;;;;;;;;;;26.80;39.40;;;;;;382667;293;279345;-62
2022/09/24 16:18:10;;;;;;;;;;;26.80;39.50;;;;;;380350;293;285451;-64
2022/09/24 16:20:12;;;;;;;;;;;26.80;39.30;;;;;;383340;291;285341;-60
2022/09/24 16:22:13;;;;;;;;;;;26.90;39.40;;;;;;383160;291;279376;-63
2022/09/24 16:24:15;;;;;;;;;;;26.80;39.30;;;;;;382082;291;279795;-65
2022/09/24 16:26:17;;;;;;;;;;;26.80;39.30;;;;;;382725;291;280194;-64
2022/09/24 16:28:18;;;;;;;;;;;26.90;39.40;;;;;;382915;291;279451;-66
2022/09/24 16:30:20;;;;;;;;;;;26.90;39.50;;;;;;382380;291;279523;-62
2022/09/24 16:32:22;;;;;;;;;;;26.90;39.50;;;;;;380628;293;279491;-65
2022/09/24 16:34:24;;;;;;;;;;;26.80;39.50;;;;;;379132;293;279822;-62
2022/09/24 16:36:26;;;;;;;;;;;26.90;39.50;;;;;;378548;293;287533;-64
2022/09/24 16:38:27;;;;;;;;;;;26.80;39.40;;;;;;379673;293;279454;-64
2022/09/24 16:40:30;;;;;;;;;;;26.90;39.40;;;;;;380734;293;279462;-63
2022/09/24 16:42:31;;;;;;;;;;;26.90;39.40;;;;;;380512;293;285385;-64
2022/09/24 16:44:33;;;;;;;;;;;26.80;40.20;;;;;;380415;293;279518;-63
2022/09/24 16:46:35;;;;;;;;;;;26.70;39.90;;;;;;380474;293;279411;-66
2022/09/24 16:48:36;;;;;;;;;;;26.80;39.70;;;;;;380362;293;279492;-65
2022/09/24 16:50:38;;;;;;;;;;;26.80;39.70;;;;;;381718;291;279527;-63
2022/09/24 16:52:43;;;;;;;;;;;26.80;39.60;;;;;;381687;293;279686;-66
2022/09/24 16:54:43;;;;;;;;;;;26.80;39.70;;;;;;382994;291;285620;-62
2022/09/24 16:56:45;;;;;;;;;;;26.80;39.70;;;;;;381708;293;279485;-59
2022/09/24 16:58:47;;;;;;;;;;;26.80;39.60;;;;;;378821;293;279421;-65
2022/09/24 17:00:48;;;;;;;;;;;26.90;39.50;;;;;;379880;293;280017;-65
2022/09/24 17:02:50;;;;;;;;;;;26.90;39.50;;;;;;380874;293;279459;-64
2022/09/24 17:04:54;;;;;;;;;;;26.90;39.60;;;;;;380838;293;279572;-60
2022/09/24 17:06:55;;;;;;;;;;;26.90;39.50;;;;;;381392;291;288419;-62
2022/09/24 17:11:16;;;;;;;;;;;26.90;39.50;;;;;;381442;291;285494;-65
2022/09/24 17:13:18;;;;;;;;;;;26.90;41.50;;;;;;382305;291;279581;-61
2022/09/24 17:15:20;;;;;;;;;;;26.90;39.70;;;;;;381369;291;280143;-63
2022/09/24 17:17:21;;;;;;;;;;;26.90;39.60;;;;;;380627;293;279455;-64
2022/09/24 17:19:23;;;;;;;;;;;26.90;39.50;;;;;;381981;291;279443;-63
2022/09/24 17:21:25;;;;;;;;;;;26.90;39.80;;;;;;380507;293;277973;-68
2022/09/24 17:23:26;;;;;;;;;;;27.00;39.50;;;;;;381891;291;278877;-67
2022/09/24 17:25:28;;;;;;;;;;;27.00;43.40;;;;;;382439;291;279721;-65
2022/09/24 17:27:30;;;;;;;;;;;26.90;39.80;;;;;;381348;293;279715;-62
2022/09/24 17:29:33;;;;;;;;;;;26.90;39.70;;;;;;379880;293;286611;-63
2022/09/24 17:31:34;;;;;;;;;;;27.00;39.60;;;;;;381582;291;285453;-61
2022/09/24 17:33:36;;;;;;;;;;;27.00;39.60;;;;;;381371;291;279389;-61
2022/09/24 17:35:38;;;;;;;;;;;26.90;39.70;;;;;;380362;293;279512;-60
2022/09/24 17:37:40;;;;;;;;;;;27.00;39.70;;;;;;381907;291;285453;-61
2022/09/24 17:39:42;;;;;;;;;;;26.90;42.10;;;;;;380022;293;279475;-55
2022/09/24 17:41:43;;;;;;;;;;;26.90;39.80;;;;;;382585;291;279633;-65
2022/09/24 17:43:45;;;;;;;;;;;27.00;39.70;;;;;;380747;293;279481;-65
2022/09/24 17:45:46;;;;;;;;;;;27.00;39.70;;;;;;382521;291;280036;-64
2022/09/24 17:47:59;;;;;;;;;;;27.00;39.70;;;;;;380818;293;280299;-62
2022/09/24 17:49:58;;;;;;;;;;;27.00;39.70;;;;;;382404;291;285397;-61
2022/09/24 17:52:01;;;;;;;;;;;26.90;42.50;;;;;;381369;291;285594;-61
2022/09/24 17:54:02;;;;;;;;;;;26.90;40.20;;;;;;379950;293;290827;-59
2022/09/24 17:56:04;;;;;;;;;;;26.90;43.20;;;;;;382032;290;278981;-59
2022/09/24 17:58:06;;;;;;;;;;;26.90;42.70;;;;;;384208;290;279927;-62
2022/09/24 18:00:07;;;;;;;;;;;26.80;40.40;;;;;;384714;290;279596;-62
2022/09/24 18:02:09;;;;;;;;;;;26.80;40.10;;;;;;384545;290;279796;-61
2022/09/24 18:04:11;;;;;;;;;;;26.90;40.00;;;;;;384484;290;279931;-62
2022/09/24 18:06:12;;;;;;;;;;;26.80;41.10;;;;;;385221;290;279404;-61
2022/09/24 18:08:14;;;;;;;;;;;26.80;40.60;;;;;;384933;290;279488;-59
2022/09/24 18:10:17;;;;;;;;;;;26.80;40.50;;;;;;384773;290;278320;-62
2022/09/24 18:12:19;;;;;;;;;;;26.80;40.20;;;;;;383420;290;285325;-62
2022/09/24 18:14:20;;;;;;;;;;;26.80;40.50;;;;;;384206;290;279362;-62
2022/09/24 18:16:22;;;;;;;;;;;26.80;40.40;;;;;;384862;290;279307;-62
2022/09/24 18:18:24;;;;;;;;;;;26.80;40.20;;;;;;385770;290;280320;-61
2022/09/24 18:20:26;;;;;;;;;;;26.80;40.10;;;;;;386146;290;279435;-62
2022/09/24 18:22:27;;;;;;;;;;;26.90;40.00;;;;;;385310;290;279727;-61
2022/09/24 18:24:29;;;;;;;;;;;26.90;40.10;;;;;;384270;290;279439;-60
2022/09/24 18:26:31;;;;;;;;;;;26.90;40.00;;;;;;384674;290;278771;-61
2022/09/24 18:28:33;;;;;;;;;;;26.90;40.00;;;;;;384316;290;279523;-60
2022/09/24 18:30:34;;;;;;;;;;;26.90;40.00;;;;;;384805;290;278937;-62
2022/09/24 18:32:37;;;;;;;;;;;26.90;39.90;;;;;;384113;290;279663;-61
2022/09/24 18:34:39;;;;;;;;;;;27.00;39.90;;;;;;384017;290;285667;-61
2022/09/24 18:36:40;;;;;;;;;;;27.00;39.90;;;;;;384494;290;279617;-61
2022/09/24 18:38:47;;;;;;;;;;;27.00;39.90;;;;;;383856;290;279692;-66
2022/09/24 18:40:46;;;;;;;;;;;27.00;39.90;;;;;;383176;290;289791;-64
2022/09/24 18:42:48;;;;;;;;;;;27.00;40.00;;;;;;384572;290;279578;-58
2022/09/24 18:44:50;;;;;;;;;;;27.00;40.10;;;;;;383803;290;286955;-58
2022/09/24 18:46:52;;;;;;;;;;;27.00;40.50;;;;;;384690;290;279537;-65
2022/09/24 18:48:54;;;;;;;;;;;27.00;40.10;;;;;;385115;290;279515;-61
2022/09/24 18:50:56;;;;;;;;;;;27.10;39.90;;;;;;384174;290;286033;-61
2022/09/24 18:52:59;;;;;;;;;;;27.10;39.90;;;;;;384517;290;279573;-60
2022/09/24 18:55:01;;;;;;;;;;;27.10;39.80;;;;;;383544;290;285473;-60
2022/09/24 18:57:03;;;;;;;;;;;27.10;39.90;;;;;;384057;290;288545;-61
2022/09/24 18:59:04;;;;;;;;;;;27.10;39.90;;;;;;384295;290;280927;-60
2022/09/24 19:01:08;;;;;;;;;;;27.10;42.90;;;;;;384638;290;279453;-58
2022/09/24 19:03:09;;;;;;;;;;;27.10;40.00;;;;;;384064;290;285467;-60
2022/09/24 19:05:11;;;;;;;;;;;27.10;39.90;;;;;;379881;293;279481;-57
2022/09/24 19:07:13;;;;;;;;;;;27.10;39.90;;;;;;382415;291;279643;-61
2022/09/24 19:09:16;;;;;;;;;;;27.10;40.00;;;;;;382558;291;279405;-61
2022/09/24 19:11:17;;;;;;;;;;;27.10;39.90;;;;;;382334;291;285480;-61
2022/09/24 19:13:19;;;;;;;;;;;27.10;39.90;;;;;;381755;291;279497;-61
2022/09/24 19:15:21;;;;;;;;;;;27.10;39.90;;;;;;382041;291;279491;-60
2022/09/24 19:17:22;;;;;;;;;;;27.10;39.90;;;;;;382176;291;279489;-62
2022/09/24 19:19:24;;;;;;;;;;;27.10;40.50;;;;;;382591;291;280302;-60
2022/09/24 19:21:26;;;;;;;;;;;27.10;40.00;;;;;;382927;291;279725;-61
2022/09/24 19:23:27;;;;;;;;;;;27.10;39.90;;;;;;382790;291;279487;-61
2022/09/24 19:25:29;;;;;;;;;;;27.10;39.90;;;;;;382115;291;279572;-58
2022/09/24 19:27:32;;;;;;;;;;;27.10;40.00;;;;;;382006;291;279951;-60
2022/09/24 19:29:33;;;;;;;;;;;27.10;39.90;;;;;;381066;291;288370;-59
2022/09/24 19:31:35;;;;;;;;;;;27.10;40.10;;;;;;382365;291;279979;-61
2022/09/24 19:33:37;;;;;;;;;;;27.10;40.00;;;;;;382179;291;279568;-63
2022/09/24 19:35:38;;;;;;;;;;;27.10;39.90;;;;;;381736;291;278399;-62
2022/09/24 19:37:40;;;;;;;;;;;27.10;39.90;;;;;;381472;291;278919;-61
2022/09/24 19:39:43;;;;;;;;;;;27.10;39.90;;;;;;382109;291;285482;-61
2022/09/24 19:41:44;;;;;;;;;;;27.10;39.90;;;;;;381573;291;289513;-63
2022/09/24 19:43:46;;;;;;;;;;;27.10;39.80;;;;;;382421;291;279934;-63
2022/09/24 19:45:48;;;;;;;;;;;27.10;40.10;;;;;;383101;291;279449;-62
2022/09/24 19:47:50;;;;;;;;;;;27.10;39.90;;;;;;381929;291;285470;-61
2022/09/24 19:49:52;;;;;;;;;;;27.10;40.10;;;;;;382361;291;279587;-61
2022/09/24 19:51:54;;;;;;;;;;;27.10;39.90;;;;;;382827;291;279379;-60
2022/09/24 19:53:55;;;;;;;;;;;27.10;39.80;;;;;;381649;291;279483;-60
2022/09/24 19:55:57;;;;;;;;;;;27.10;39.80;;;;;;382683;291;280875;-62
2022/09/24 19:58:00;;;;;;;;;;;27.10;39.80;;;;;;382607;291;279609;-61
2022/09/24 20:00:02;;;;;;;;;;;27.10;39.80;;;;;;382122;291;285630;-62
2022/09/24 20:02:03;;;;;;;;;;;27.10;39.80;;;;;;382928;291;279616;-58
2022/09/24 20:04:05;;;;;;;;;;;27.10;39.80;;;;;;382205;291;279746;-61
2022/09/24 20:06:07;;;;;;;;;;;27.10;39.80;;;;;;382193;291;279715;-61
2022/09/24 20:08:11;;;;;;;;;;;27.10;39.80;;;;;;381534;291;285726;-60
2022/09/24 20:10:13;;;;;;;;;;;27.10;39.70;;;;;;382449;291;287732;-58
2022/09/24 20:12:15;;;;;;;;;;;27.10;39.70;;;;;;381450;291;285670;-63
2022/09/24 20:14:19;;;;;;;;;;;27.10;39.80;;;;;;381525;291;285808;-62
2022/09/24 20:16:21;;;;;;;;;;;27.10;39.80;;;;;;381308;291;285605;-61
2022/09/24 20:18:22;;;;;;;;;;;27.10;39.90;;;;;;382642;291;279648;-60
2022/09/24 20:20:24;;;;;;;;;;;27.10;39.90;;;;;;382664;291;279646;-59
2022/09/24 20:22:26;;;;;;;;;;;27.10;39.90;;;;;;382200;291;279590;-61
2022/09/24 20:24:27;;;;;;;;;;;27.10;40.50;;;;;;382522;291;279592;-62
2022/09/24 20:28:49;;;;;;;;;;;27.00;40.00;;;;;;381524;291;285585;-63
2022/09/24 20:30:51;;;;;;;;;;;27.00;40.00;;;;;;381925;291;279353;-62
2022/09/24 20:32:52;;;;;;;;;;;26.90;40.40;;;;;;384346;290;279830;-61
2022/09/24 20:34:54;;;;;;;;;;;26.90;42.50;;;;;;383715;290;278366;-60
2022/09/24 20:36:59;;;;;;;;;;;26.90;40.20;;;;;;384926;290;279803;-59
2022/09/24 20:38:59;;;;;;;;;;;27.00;40.10;;;;;;383874;290;285735;-62
2022/09/24 20:41:01;;;;;;;;;;;26.90;40.40;;;;;;384320;290;279421;-61
2022/09/24 20:43:02;;;;;;;;;;;26.90;40.70;;;;;;384736;290;279370;-63
2022/09/24 20:45:04;;;;;;;;;;;26.90;40.30;;;;;;384178;290;278548;-64
2022/09/24 20:47:06;;;;;;;;;;;27.00;40.10;;;;;;384725;290;279316;-63
2022/09/24 20:49:08;;;;;;;;;;;27.00;40.00;;;;;;384339;290;279975;-64
2022/09/24 20:51:10;;;;;;;;;;;27.00;40.00;;;;;;383191;290;285224;-63
2022/09/24 20:53:12;;;;;;;;;;;27.00;40.00;;;;;;384373;290;279795;-62
2022/09/24 20:55:14;;;;;;;;;;;27.00;40.00;;;;;;384014;290;278726;-62
2022/09/24 20:57:16;;;;;;;;;;;27.00;40.00;;;;;;384067;290;287255;-61
2022/09/24 20:59:17;;;;;;;;;;;27.00;39.90;;;;;;383828;290;280065;-62
2022/09/24 21:01:19;;;;;;;;;;;27.10;39.80;;;;;;384469;290;281095;-62
2022/09/24 21:03:21;;;;;;;;;;;27.00;40.90;;;;;;384620;290;279537;-61
2022/09/24 21:05:25;;;;;;;;;;;26.90;40.50;;;;;;384583;290;279536;-64
2022/09/24 21:07:26;;;;;;;;;;;26.90;40.50;;;;;;383558;290;289734;-62
2022/09/24 21:09:28;;;;;;;;;;;26.90;40.10;;;;;;385043;290;279416;-62
2022/09/24 21:11:30;;;;;;;;;;;27.00;40.50;;;;;;383930;290;278929;-62
2022/09/24 21:13:31;;;;;;;;;;;27.00;40.20;;;;;;384076;290;285399;-62
2022/09/24 21:15:33;;;;;;;;;;;27.00;42.70;;;;;;384370;290;279574;-61
2022/09/24 21:17:35;;;;;;;;;;;26.90;40.30;;;;;;383800;290;278845;-60
2022/09/24 21:19:37;;;;;;;;;;;27.00;40.00;;;;;;384711;290;279471;-61
2022/09/24 21:21:38;;;;;;;;;;;27.00;40.00;;;;;;384227;290;279370;-59
2022/09/24 21:23:40;;;;;;;;;;;27.00;39.90;;;;;;384993;290;279586;-62
2022/09/24 21:25:42;;;;;;;;;;;27.10;39.90;;;;;;385052;290;279760;-59
2022/09/24 21:27:43;;;;;;;;;;;27.10;40.40;;;;;;384396;290;279801;-62
2022/09/24 21:29:46;;;;;;;;;;;27.10;39.70;;;;;;384037;290;279611;-60
2022/09/24 21:31:47;;;;;;;;;;;27.00;40.20;;;;;;383643;290;285597;-61
2022/09/24 21:33:51;;;;;;;;;;;27.00;39.90;;;;;;384487;290;279628;-59
2022/09/24 21:35:56;;;;;;;;;;;27.00;39.70;;;;;;384025;290;286256;-59
2022/09/24 21:37:56;;;;;;;;;;;27.00;39.70;;;;;;383745;290;285539;-61
2022/09/24 21:39:58;;;;;;;;;;;27.10;40.20;;;;;;384670;290;279554;-60
2022/09/24 21:41:59;;;;;;;;;;;27.10;39.60;;;;;;384340;290;281498;-59
2022/09/24 21:44:01;;;;;;;;;;;27.10;39.70;;;;;;384128;290;279638;-60
2022/09/24 21:46:04;;;;;;;;;;;27.10;39.60;;;;;;379945;293;285525;-61
2022/09/24 21:48:06;;;;;;;;;;;27.00;39.80;;;;;;381805;291;285706;-61
2022/09/24 21:50:08;;;;;;;;;;;27.00;39.60;;;;;;381911;291;285682;-61
2022/09/24 21:52:10;;;;;;;;;;;27.10;39.80;;;;;;382270;291;279912;-63
2022/09/24 21:54:11;;;;;;;;;;;27.10;39.60;;;;;;382117;291;279685;-60
2022/09/24 21:56:13;;;;;;;;;;;27.10;39.60;;;;;;381903;291;279548;-62
2022/09/24 21:58:15;;;;;;;;;;;27.10;39.70;;;;;;383016;291;278548;-61
2022/09/24 22:00:16;;;;;;;;;;;27.10;39.70;;;;;;382623;291;279286;-62
2022/09/24 22:02:19;;;;;;;;;;;27.10;39.50;;;;;;382040;291;279537;-61
2022/09/24 22:04:20;;;;;;;;;;;27.00;39.70;;;;;;382208;291;285552;-61
2022/09/24 22:06:22;;;;;;;;;;;27.00;39.60;;;;;;383078;291;279610;-61
2022/09/24 22:08:26;;;;;;;;;;;27.00;39.60;;;;;;382707;291;279430;-59
2022/09/24 22:10:27;;;;;;;;;;;27.00;39.60;;;;;;381676;291;285760;-60
2022/09/24 22:12:29;;;;;;;;;;;27.00;39.60;;;;;;381573;291;280416;-61
2022/09/24 22:14:33;;;;;;;;;;;27.00;39.60;;;;;;382369;291;280059;-61
2022/09/24 22:16:34;;;;;;;;;;;27.00;39.60;;;;;;381967;291;285385;-61
2022/09/24 22:18:35;;;;;;;;;;;26.90;39.80;;;;;;381694;291;279574;-60
2022/09/24 22:20:37;;;;;;;;;;;26.90;39.70;;;;;;382110;291;279542;-60
2022/09/24 22:22:39;;;;;;;;;;;26.90;39.90;;;;;;381449;291;279482;-59
2022/09/24 22:24:40;;;;;;;;;;;26.90;39.70;;;;;;382293;291;279615;-59
2022/09/24 22:26:42;;;;;;;;;;;26.90;40.00;;;;;;382186;291;279521;-60
2022/09/24 22:28:44;;;;;;;;;;;26.90;39.80;;;;;;381865;291;279616;-60
2022/09/24 22:30:45;;;;;;;;;;;27.00;39.80;;;;;;382719;291;279471;-60
2022/09/24 22:32:47;;;;;;;;;;;27.00;39.60;;;;;;384763;290;280011;-59
2022/09/24 22:36:59;;;;;;;;;;;27.00;39.50;;;;;;380753;290;285476;-61
2022/09/24 22:39:00;;;;;;;;;;;27.00;39.50;;;;;;383485;290;288367;-60
2022/09/24 22:41:02;;;;;;;;;;;27.00;39.50;;;;;;383947;290;279720;-62
2022/09/24 22:43:04;;;;;;;;;;;27.00;39.50;;;;;;384520;290;278495;-61
2022/09/24 22:49:18;;;;;;;;;;;27.10;39.40;;;;;;388303;287;279578;-55
2022/09/24 22:53:34;;;;;;;;;;;27.00;39.60;;;;;;389193;287;279055;-52
2022/09/24 22:55:36;;;;;;;;;;;27.00;39.40;;;;;;382430;292;279624;-52
2022/09/24 22:57:38;;;;;;;;;;;27.00;39.40;;;;;;382080;292;279177;-56
2022/09/24 22:59:39;;;;;;;;;;;27.10;39.30;;;;;;382343;292;279874;-55
2022/09/24 23:01:41;;;;;;;;;;;27.10;39.30;;;;;;380661;292;279287;-55
2022/09/24 23:03:43;;;;;;;;;;;27.00;39.50;;;;;;380687;293;279625;-54
2022/09/24 23:05:44;;;;;;;;;;;27.10;39.30;;;;;;380641;293;279471;-56
2022/09/24 23:07:46;;;;;;;;;;;27.10;39.30;;;;;;380681;293;279804;-52
2022/09/24 23:09:48;;;;;;;;;;;27.10;39.20;;;;;;380159;293;279589;-56
2022/09/24 23:11:50;;;;;;;;;;;27.10;39.60;;;;;;381679;292;279454;-57
2022/09/24 23:13:52;;;;;;;;;;;27.10;39.50;;;;;;380940;293;286318;-58
2022/09/24 23:15:54;;;;;;;;;;;27.10;39.20;;;;;;380346;293;279606;-55
2022/09/24 23:17:56;;;;;;;;;;;27.10;43.10;;;;;;380012;293;285418;-57
2022/09/24 23:19:57;;;;;;;;;;;27.10;39.40;;;;;;380726;292;280535;-55
2022/09/24 23:21:59;;;;;;;;;;;27.10;39.50;;;;;;380601;293;279621;-64
2022/09/24 23:24:01;;;;;;;;;;;27.00;39.30;;;;;;381005;293;279495;-59
2022/09/24 23:26:03;;;;;;;;;;;27.10;39.30;;;;;;380837;293;280527;-64
2022/09/24 23:28:05;;;;;;;;;;;27.10;39.20;;;;;;379345;294;285522;-65
2022/09/24 23:30:07;;;;;;;;;;;27.10;39.20;;;;;;379924;293;279430;-59
2022/09/24 23:32:09;;;;;;;;;;;27.10;39.90;;;;;;381509;293;279588;-60
2022/09/24 23:34:10;;;;;;;;;;;27.10;39.40;;;;;;380602;293;279994;-62
2022/09/24 23:36:12;;;;;;;;;;;27.00;39.30;;;;;;380708;293;278601;-61
2022/09/24 23:38:13;;;;;;;;;;;27.10;39.30;;;;;;380696;293;279601;-60
2022/09/24 23:40:15;;;;;;;;;;;27.00;43.50;;;;;;380788;292;279549;-58
2022/09/24 23:42:17;;;;;;;;;;;26.90;39.90;;;;;;380802;292;279350;-61
2022/09/24 23:44:18;;;;;;;;;;;27.00;39.40;;;;;;378668;295;279719;-62
2022/09/24 23:46:20;;;;;;;;;;;27.00;39.40;;;;;;380794;293;280069;-58
2022/09/24 23:48:22;;;;;;;;;;;27.10;40.40;;;;;;380512;293;279494;-59
2022/09/24 23:50:23;;;;;;;;;;;27.10;39.40;;;;;;380979;291;279588;-58
2022/09/24 23:52:25;;;;;;;;;;;27.10;39.20;;;;;;380422;293;279596;-58
2022/09/24 23:54:27;;;;;;;;;;;27.10;39.20;;;;;;380534;293;279453;-59
2022/09/24 23:56:28;;;;;;;;;;;27.10;39.20;;;;;;380507;293;279543;-59
2022/09/24 23:58:30;;;;;;;;;;;27.10;39.10;;;;;;380545;293;278488;-58
